sensor_id;sensor_type;location;lat;lon;timestamp;pressure;altitude;pressure_sealevel;temperature;humidity
72024;BME280;59889;50.700;5.440;2024-03-07T00:00:44;100799.49;;;21.82;33.75
72024;BME280;59889;50.700;5.440;2024-03-07T00:03:09;100801.20;;;21.50;33.80
72024;BME280;59889;50.700;5.440;2024-03-07T00:05:34;100800.88;;;21.51;33.82
72024;BME280;59889;50.700;5.440;2024-03-07T00:07:59;100802.65;;;21.93;33.87
72024;BME280;59889;50.700;5.440;2024-03-07T00:10:24;100804.93;;;21.49;33.83
72024;BME280;59889;50.700;5.440;2024-03-07T00:12:50;100803.28;;;21.77;33.79
72024;BME280;59889;50.700;5.440;2024-03-07T00:15:15;100800.51;;;21.74;33.83
72024;BME280;59889;50.700;5.440;2024-03-07T00:17:41;100801.76;;;21.73;33.83
72024;BME280;59889;50.700;5.440;2024-03-07T00:20:06;100801.29;;;21.78;33.79
72024;BME280;59889;50.700;5.440;2024-03-07T00:22:31;100799.19;;;21.70;33.86
72024;BME280;59889;50.700;5.440;2024-03-07T00:24:56;100800.82;;;21.65;33.91
72024;BME280;59889;50.700;5.440;2024-03-07T00:27:21;100799.07;;;21.61;33.97
72024;BME280;59889;50.700;5.440;2024-03-07T00:29:47;100797.49;;;21.62;33.96
72024;BME280;59889;50.700;5.440;2024-03-07T00:32:12;100798.11;;;21.42;33.93
72024;BME280;59889;50.700;5.440;2024-03-07T00:34:37;100795.55;;;21.61;33.99
72024;BME280;59889;50.700;5.440;2024-03-07T00:37:02;100795.65;;;21.65;33.95
72024;BME280;59889;50.700;5.440;2024-03-07T00:39:27;100793.06;;;21.56;34.02
72024;BME280;59889;50.700;5.440;2024-03-07T00:41:53;100792.65;;;21.52;34.10
72024;BME280;59889;50.700;5.440;2024-03-07T00:44:18;100791.64;;;21.60;33.98
72024;BME280;59889;50.700;5.440;2024-03-07T00:46:43;100789.83;;;21.61;33.98
72024;BME280;59889;50.700;5.440;2024-03-07T00:49:09;100788.10;;;21.67;33.88
72024;BME280;59889;50.700;5.440;2024-03-07T00:51:34;100787.64;;;21.26;34.10
72024;BME280;59889;50.700;5.440;2024-03-07T00:53:59;100786.86;;;21.29;34.05
72024;BME280;59889;50.700;5.440;2024-03-07T00:56:24;100786.20;;;21.42;33.92
72024;BME280;59889;50.700;5.440;2024-03-07T00:58:50;100787.34;;;21.69;33.85
72024;BME280;59889;50.700;5.440;2024-03-07T01:01:15;100790.65;;;21.39;34.21
72024;BME280;59889;50.700;5.440;2024-03-07T01:03:41;100791.39;;;21.49;34.11
72024;BME280;59889;50.700;5.440;2024-03-07T01:06:05;100791.06;;;21.27;34.09
72024;BME280;59889;50.700;5.440;2024-03-07T01:08:31;100790.94;;;21.57;34.00
72024;BME280;59889;50.700;5.440;2024-03-07T01:10:56;100790.53;;;21.46;34.14
72024;BME280;59889;50.700;5.440;2024-03-07T01:13:21;100788.34;;;21.27;34.09
72024;BME280;59889;50.700;5.440;2024-03-07T01:15:47;100785.95;;;21.25;34.11
72024;BME280;59889;50.700;5.440;2024-03-07T01:18:12;100782.85;;;21.53;34.05
72024;BME280;59889;50.700;5.440;2024-03-07T01:20:37;100782.44;;;21.66;33.86
72024;BME280;59889;50.700;5.440;2024-03-07T01:23:03;100776.25;;;21.49;34.07
72024;BME280;59889;50.700;5.440;2024-03-07T01:25:28;100771.34;;;21.30;34.03
72024;BME280;59889;50.700;5.440;2024-03-07T01:27:53;100771.81;;;21.55;34.02
72024;BME280;59889;50.700;5.440;2024-03-07T01:30:18;100770.86;;;21.30;34.30
72024;BME280;59889;50.700;5.440;2024-03-07T01:32:43;100767.59;;;21.37;34.24
72024;BME280;59889;50.700;5.440;2024-03-07T01:35:09;100763.01;;;21.13;34.24
72024;BME280;59889;50.700;5.440;2024-03-07T01:37:34;100760.96;;;21.30;34.30
72024;BME280;59889;50.700;5.440;2024-03-07T01:39:59;100760.24;;;21.47;34.02
72024;BME280;59889;50.700;5.440;2024-03-07T01:42:25;100755.41;;;21.40;34.17
72024;BME280;59889;50.700;5.440;2024-03-07T01:44:50;100753.98;;;21.08;34.26
72024;BME280;59889;50.700;5.440;2024-03-07T01:47:15;100754.56;;;21.40;34.17
72024;BME280;59889;50.700;5.440;2024-03-07T01:49:40;100752.34;;;21.21;34.40
72024;BME280;59889;50.700;5.440;2024-03-07T01:52:06;100752.09;;;20.99;34.36
72024;BME280;59889;50.700;5.440;2024-03-07T01:54:31;100751.08;;;21.30;34.29
72024;BME280;59889;50.700;5.440;2024-03-07T01:56:56;100748.09;;;21.54;34.29
72024;BME280;59889;50.700;5.440;2024-03-07T01:59:22;100744.71;;;21.23;34.37
72024;BME280;59889;50.700;5.440;2024-03-07T02:01:47;100745.02;;;21.31;34.26
72024;BME280;59889;50.700;5.440;2024-03-07T02:04:12;100745.96;;;21.36;34.18
72024;BME280;59889;50.700;5.440;2024-03-07T02:06:37;100743.73;;;21.24;34.34
72024;BME280;59889;50.700;5.440;2024-03-07T02:09:03;100740.07;;;21.31;34.26
72024;BME280;59889;50.700;5.440;2024-03-07T02:11:28;100739.23;;;21.62;34.16
72024;BME280;59889;50.700;5.440;2024-03-07T02:13:53;100736.13;;;21.06;34.26
72024;BME280;59889;50.700;5.440;2024-03-07T02:16:18;100732.35;;;21.01;34.30
72024;BME280;59889;50.700;5.440;2024-03-07T02:18:44;100730.34;;;21.30;34.23
72024;BME280;59889;50.700;5.440;2024-03-07T02:21:09;100732.00;;;21.25;34.30
72024;BME280;59889;50.700;5.440;2024-03-07T02:23:34;100735.24;;;21.40;34.14
72024;BME280;59889;50.700;5.440;2024-03-07T02:25:59;100733.20;;;21.42;34.11
72024;BME280;59889;50.700;5.440;2024-03-07T02:28:25;100727.90;;;21.29;34.22
72024;BME280;59889;50.700;5.440;2024-03-07T02:30:50;100727.01;;;21.06;34.25
72024;BME280;59889;50.700;5.440;2024-03-07T02:33:15;100723.04;;;21.27;34.28
72024;BME280;59889;50.700;5.440;2024-03-07T02:35:40;100721.43;;;21.33;34.17
72024;BME280;59889;50.700;5.440;2024-03-07T02:38:06;100721.24;;;21.04;34.24
72024;BME280;59889;50.700;5.440;2024-03-07T02:40:31;100716.84;;;21.30;34.21
72024;BME280;59889;50.700;5.440;2024-03-07T02:42:56;100713.28;;;21.15;34.39
72024;BME280;59889;50.700;5.440;2024-03-07T02:45:21;100713.79;;;21.24;34.30
72024;BME280;59889;50.700;5.440;2024-03-07T02:47:47;100711.54;;;21.23;34.26
72024;BME280;59889;50.700;5.440;2024-03-07T02:50:12;100710.05;;;21.31;34.15
72024;BME280;59889;50.700;5.440;2024-03-07T02:52:37;100710.26;;;21.19;34.32
72024;BME280;59889;50.700;5.440;2024-03-07T02:55:03;100711.26;;;21.08;34.44
72024;BME280;59889;50.700;5.440;2024-03-07T02:57:28;100712.61;;;21.43;34.33
72024;BME280;59889;50.700;5.440;2024-03-07T02:59:53;100711.00;;;21.17;34.36
72024;BME280;59889;50.700;5.440;2024-03-07T03:02:18;100709.55;;;21.11;34.41
72024;BME280;59889;50.700;5.440;2024-03-07T03:04:44;100705.88;;;21.17;34.34
72024;BME280;59889;50.700;5.440;2024-03-07T03:07:09;100702.87;;;21.39;34.39
72024;BME280;59889;50.700;5.440;2024-03-07T03:09:35;100701.78;;;21.16;34.31
72024;BME280;59889;50.700;5.440;2024-03-07T03:12:00;100700.75;;;21.22;34.27
72024;BME280;59889;50.700;5.440;2024-03-07T03:14:25;100695.77;;;21.08;34.44
72024;BME280;59889;50.700;5.440;2024-03-07T03:16:50;100693.27;;;21.06;34.47
72024;BME280;59889;50.700;5.440;2024-03-07T03:19:15;100693.42;;;21.46;34.28
72024;BME280;59889;50.700;5.440;2024-03-07T03:21:41;100688.31;;;21.08;34.43
72024;BME280;59889;50.700;5.440;2024-03-07T03:24:06;100688.77;;;20.87;34.40
72024;BME280;59889;50.700;5.440;2024-03-07T03:26:31;100688.48;;;21.41;34.27
72024;BME280;59889;50.700;5.440;2024-03-07T03:28:57;100687.28;;;21.13;34.37
72024;BME280;59889;50.700;5.440;2024-03-07T03:31:22;100682.58;;;21.09;34.39
72024;BME280;59889;50.700;5.440;2024-03-07T03:33:47;100680.57;;;21.51;34.18
72024;BME280;59889;50.700;5.440;2024-03-07T03:36:13;100683.82;;;21.14;34.35
72024;BME280;59889;50.700;5.440;2024-03-07T03:38:38;100683.17;;;21.13;34.36
72024;BME280;59889;50.700;5.440;2024-03-07T03:41:03;100681.38;;;21.17;34.28
72024;BME280;59889;50.700;5.440;2024-03-07T03:43:29;100684.65;;;21.27;34.46
72024;BME280;59889;50.700;5.440;2024-03-07T03:45:53;100683.96;;;21.42;34.22
72024;BME280;59889;50.700;5.440;2024-03-07T03:48:19;100684.62;;;21.36;34.30
72024;BME280;59889;50.700;5.440;2024-03-07T03:50:44;100682.64;;;20.99;34.49
72024;BME280;59889;50.700;5.440;2024-03-07T03:53:09;100683.25;;;21.29;34.44
72024;BME280;59889;50.700;5.440;2024-03-07T03:55:35;100684.95;;;21.04;34.43
72024;BME280;59889;50.700;5.440;2024-03-07T03:58:00;100687.30;;;21.08;34.35
72024;BME280;59889;50.700;5.440;2024-03-07T04:00:26;100687.68;;;21.04;34.43
72024;BME280;59889;50.700;5.440;2024-03-07T04:02:50;100689.73;;;20.97;34.49
72024;BME280;59889;50.700;5.440;2024-03-07T04:05:17;100688.60;;;20.83;34.39
72024;BME280;59889;50.700;5.440;2024-03-07T04:07:41;100690.16;;;21.18;34.22
72024;BME280;59889;50.700;5.440;2024-03-07T04:10:06;100686.06;;;20.77;34.42
72024;BME280;59889;50.700;5.440;2024-03-07T04:12:31;100684.11;;;20.97;34.51
72024;BME280;59889;50.700;5.440;2024-03-07T04:14:57;100683.95;;;21.22;34.47
72024;BME280;59889;50.700;5.440;2024-03-07T04:17:22;100682.27;;;21.05;34.39
72024;BME280;59889;50.700;5.440;2024-03-07T04:19:47;100682.03;;;21.32;34.38
72024;BME280;59889;50.700;5.440;2024-03-07T04:22:13;100678.21;;;20.80;34.38
72024;BME280;59889;50.700;5.440;2024-03-07T04:24:38;100676.34;;;21.25;34.41
72024;BME280;59889;50.700;5.440;2024-03-07T04:27:04;100677.91;;;20.68;34.50
72024;BME280;59889;50.700;5.440;2024-03-07T04:29:28;100677.55;;;20.97;34.46
72024;BME280;59889;50.700;5.440;2024-03-07T04:31:54;100678.54;;;21.07;34.29
72024;BME280;59889;50.700;5.440;2024-03-07T04:34:19;100674.21;;;21.15;34.22
72024;BME280;59889;50.700;5.440;2024-03-07T04:36:45;100671.09;;;21.25;34.38
72024;BME280;59889;50.700;5.440;2024-03-07T04:39:09;100667.29;;;20.92;34.43
72024;BME280;59889;50.700;5.440;2024-03-07T04:41:35;100668.56;;;21.04;34.34
72024;BME280;59889;50.700;5.440;2024-03-07T04:44:00;100665.45;;;21.00;34.34
72024;BME280;59889;50.700;5.440;2024-03-07T04:46:25;100665.02;;;21.03;34.28
72024;BME280;59889;50.700;5.440;2024-03-07T04:48:50;100664.59;;;21.20;34.35
72024;BME280;59889;50.700;5.440;2024-03-07T04:51:16;100664.08;;;21.08;34.23
72024;BME280;59889;50.700;5.440;2024-03-07T04:53:41;100660.77;;;21.22;34.03
72024;BME280;59889;50.700;5.440;2024-03-07T04:56:06;100659.56;;;20.95;34.37
72024;BME280;59889;50.700;5.440;2024-03-07T04:58:32;100658.70;;;21.05;34.25
72024;BME280;59889;50.700;5.440;2024-03-07T05:00:57;100660.20;;;21.10;34.16
72024;BME280;59889;50.700;5.440;2024-03-07T05:03:24;100661.82;;;21.27;34.23
72024;BME280;59889;50.700;5.440;2024-03-07T05:05:48;100663.36;;;20.93;34.32
72024;BME280;59889;50.700;5.440;2024-03-07T05:08:13;100665.37;;;21.21;34.31
72024;BME280;59889;50.700;5.440;2024-03-07T05:10:38;100661.84;;;21.35;34.13
72024;BME280;59889;50.700;5.440;2024-03-07T05:13:03;100669.76;;;21.05;34.21
72024;BME280;59889;50.700;5.440;2024-03-07T05:15:29;100667.12;;;20.96;34.33
72024;BME280;59889;50.700;5.440;2024-03-07T05:17:54;100666.05;;;20.99;34.28
72024;BME280;59889;50.700;5.440;2024-03-07T05:20:19;100667.10;;;21.35;34.13
72024;BME280;59889;50.700;5.440;2024-03-07T05:22:44;100665.24;;;21.04;34.21
72024;BME280;59889;50.700;5.440;2024-03-07T05:25:10;100662.65;;;20.76;34.27
72024;BME280;59889;50.700;5.440;2024-03-07T05:27:35;100661.00;;;21.08;34.16
72024;BME280;59889;50.700;5.440;2024-03-07T05:30:03;100657.64;;;21.24;34.25
72024;BME280;59889;50.700;5.440;2024-03-07T05:32:26;100654.37;;;21.11;34.12
72024;BME280;59889;50.700;5.440;2024-03-07T05:34:51;100656.19;;;21.32;34.16
72024;BME280;59889;50.700;5.440;2024-03-07T05:37:16;100654.53;;;21.18;34.00
72024;BME280;59889;50.700;5.440;2024-03-07T05:39:41;100654.58;;;21.02;34.16
72024;BME280;59889;50.700;5.440;2024-03-07T05:42:07;100649.89;;;21.13;34.06
72024;BME280;59889;50.700;5.440;2024-03-07T05:44:33;100648.11;;;21.35;34.07
72024;BME280;59889;50.700;5.440;2024-03-07T05:46:57;100647.14;;;21.16;34.02
72024;BME280;59889;50.700;5.440;2024-03-07T05:49:23;100643.43;;;21.13;34.05
72024;BME280;59889;50.700;5.440;2024-03-07T05:51:48;100643.22;;;21.14;34.05
72024;BME280;59889;50.700;5.440;2024-03-07T05:54:13;100638.99;;;21.16;34.01
72024;BME280;59889;50.700;5.440;2024-03-07T05:56:39;100642.03;;;20.98;33.92
72024;BME280;59889;50.700;5.440;2024-03-07T05:59:05;100646.92;;;20.93;33.85
72024;BME280;59889;50.700;5.440;2024-03-07T06:01:29;100646.06;;;20.65;33.61
72024;BME280;59889;50.700;5.440;2024-03-07T06:03:55;100645.57;;;20.93;33.19
72024;BME280;59889;50.700;5.440;2024-03-07T06:06:20;100644.02;;;20.73;33.11
72024;BME280;59889;50.700;5.440;2024-03-07T06:08:45;100639.90;;;20.37;33.04
72024;BME280;59889;50.700;5.440;2024-03-07T06:11:10;100639.49;;;20.50;32.68
72024;BME280;59889;50.700;5.440;2024-03-07T06:13:35;100644.22;;;20.63;32.53
72024;BME280;59889;50.700;5.440;2024-03-07T06:16:01;100645.78;;;20.49;32.49
72024;BME280;59889;50.700;5.440;2024-03-07T06:18:26;100646.83;;;20.39;32.24
72024;BME280;59889;50.700;5.440;2024-03-07T06:20:52;100649.46;;;20.49;32.22
72024;BME280;59889;50.700;5.440;2024-03-07T06:23:17;100646.18;;;20.62;31.94
72024;BME280;59889;50.700;5.440;2024-03-07T06:25:42;100652.88;;;20.60;31.70
72024;BME280;59889;50.700;5.440;2024-03-07T06:28:08;100653.83;;;20.65;31.76
72024;BME280;59889;50.700;5.440;2024-03-07T06:30:32;100650.88;;;20.65;31.63
72024;BME280;59889;50.700;5.440;2024-03-07T06:32:58;100651.21;;;20.47;31.45
72024;BME280;59889;50.700;5.440;2024-03-07T06:35:23;100651.35;;;20.70;31.27
72024;BME280;59889;50.700;5.440;2024-03-07T06:37:48;100653.09;;;20.56;31.34
72024;BME280;59889;50.700;5.440;2024-03-07T06:40:14;100656.48;;;20.37;31.19
72024;BME280;59889;50.700;5.440;2024-03-07T06:42:39;100659.59;;;20.69;31.22
72024;BME280;59889;50.700;5.440;2024-03-07T06:45:05;100656.59;;;20.40;31.02
72024;BME280;59889;50.700;5.440;2024-03-07T06:47:29;100654.39;;;20.54;30.60
72024;BME280;59889;50.700;5.440;2024-03-07T06:49:55;100653.96;;;20.49;30.62
72024;BME280;59889;50.700;5.440;2024-03-07T06:52:20;100653.42;;;20.30;31.37
72024;BME280;59889;50.700;5.440;2024-03-07T06:54:45;100653.85;;;20.32;31.64
72024;BME280;59889;50.700;5.440;2024-03-07T06:57:11;100655.21;;;20.40;31.73
72024;BME280;59889;50.700;5.440;2024-03-07T06:59:36;100651.45;;;20.43;31.82
72024;BME280;59889;50.700;5.440;2024-03-07T07:02:02;100647.51;;;20.75;31.79
72024;BME280;59889;50.700;5.440;2024-03-07T07:04:26;100648.66;;;20.55;31.85
72024;BME280;59889;50.700;5.440;2024-03-07T07:06:52;100649.66;;;20.64;31.82
72024;BME280;59889;50.700;5.440;2024-03-07T07:09:17;100649.55;;;20.71;31.82
72024;BME280;59889;50.700;5.440;2024-03-07T07:11:42;100649.84;;;20.58;31.75
72024;BME280;59889;50.700;5.440;2024-03-07T07:14:08;100651.80;;;20.84;31.76
72024;BME280;59889;50.700;5.440;2024-03-07T07:16:33;100651.05;;;21.00;31.62
72024;BME280;59889;50.700;5.440;2024-03-07T07:18:58;100651.52;;;21.13;31.54
72024;BME280;59889;50.700;5.440;2024-03-07T07:21:24;100651.10;;;21.15;31.30
72024;BME280;59889;50.700;5.440;2024-03-07T07:23:49;100654.95;;;21.36;30.83
72024;BME280;59889;50.700;5.440;2024-03-07T07:26:14;100654.40;;;21.86;30.32
72024;BME280;59889;50.700;5.440;2024-03-07T07:28:39;100651.57;;;22.45;29.72
72024;BME280;59889;50.700;5.440;2024-03-07T07:31:05;100655.47;;;22.41;29.53
72024;BME280;59889;50.700;5.440;2024-03-07T07:33:30;100657.39;;;22.45;29.46
72024;BME280;59889;50.700;5.440;2024-03-07T07:35:55;100653.88;;;22.45;29.26
72024;BME280;59889;50.700;5.440;2024-03-07T07:38:20;100653.06;;;22.59;29.13
72024;BME280;59889;50.700;5.440;2024-03-07T07:40:47;100649.77;;;22.85;28.91
72024;BME280;59889;50.700;5.440;2024-03-07T07:43:11;100647.30;;;22.90;28.83
72024;BME280;59889;50.700;5.440;2024-03-07T07:45:36;100650.08;;;23.01;28.77
72024;BME280;59889;50.700;5.440;2024-03-07T07:48:02;100646.50;;;22.78;29.09
72024;BME280;59889;50.700;5.440;2024-03-07T07:50:27;100647.99;;;22.12;29.77
72024;BME280;59889;50.700;5.440;2024-03-07T07:52:53;100640.60;;;21.88;30.34
72024;BME280;59889;50.700;5.440;2024-03-07T07:55:19;100639.42;;;21.58;30.69
72024;BME280;59889;50.700;5.440;2024-03-07T07:57:43;100635.00;;;21.58;31.09
72024;BME280;59889;50.700;5.440;2024-03-07T08:00:09;100633.87;;;21.33;31.47
72024;BME280;59889;50.700;5.440;2024-03-07T08:02:33;100632.15;;;21.08;31.77
72024;BME280;59889;50.700;5.440;2024-03-07T08:04:58;100633.74;;;21.00;31.86
72024;BME280;59889;50.700;5.440;2024-03-07T08:07:23;100631.19;;;20.97;32.22
72024;BME280;59889;50.700;5.440;2024-03-07T08:09:49;100627.41;;;20.81;32.42
72024;BME280;59889;50.700;5.440;2024-03-07T08:12:14;100626.23;;;20.68;32.61
72024;BME280;59889;50.700;5.440;2024-03-07T08:14:39;100626.85;;;20.84;32.72
72024;BME280;59889;50.700;5.440;2024-03-07T08:17:04;100625.71;;;20.56;32.83
72024;BME280;59889;50.700;5.440;2024-03-07T08:19:30;100620.22;;;21.01;32.66
72024;BME280;59889;50.700;5.440;2024-03-07T08:21:55;100622.16;;;20.53;32.93
72024;BME280;59889;50.700;5.440;2024-03-07T08:24:20;100620.48;;;20.85;32.85
72024;BME280;59889;50.700;5.440;2024-03-07T08:26:45;100615.07;;;20.78;32.72
72024;BME280;59889;50.700;5.440;2024-03-07T08:29:11;100612.06;;;20.76;32.73
72024;BME280;59889;50.700;5.440;2024-03-07T08:31:36;100611.05;;;21.15;32.63
72024;BME280;59889;50.700;5.440;2024-03-07T08:34:02;100608.34;;;20.83;32.75
72024;BME280;59889;50.700;5.440;2024-03-07T08:36:27;100609.65;;;20.82;32.87
72024;BME280;59889;50.700;5.440;2024-03-07T08:38:52;100611.59;;;21.16;32.89
72024;BME280;59889;50.700;5.440;2024-03-07T08:41:17;100610.73;;;20.89;32.92
72024;BME280;59889;50.700;5.440;2024-03-07T08:43:42;100605.09;;;21.09;32.95
72024;BME280;59889;50.700;5.440;2024-03-07T08:46:09;100599.09;;;20.78;33.06
72024;BME280;59889;50.700;5.440;2024-03-07T08:48:33;100594.86;;;20.67;33.21
72024;BME280;59889;50.700;5.440;2024-03-07T08:50:58;100591.73;;;20.64;33.23
72024;BME280;59889;50.700;5.440;2024-03-07T08:53:24;100592.97;;;20.93;33.20
72024;BME280;59889;50.700;5.440;2024-03-07T08:55:49;100590.74;;;21.11;33.01
72024;BME280;59889;50.700;5.440;2024-03-07T08:58:15;100589.16;;;21.07;33.05
72024;BME280;59889;50.700;5.440;2024-03-07T09:00:39;100589.70;;;21.12;32.98
72024;BME280;59889;50.700;5.440;2024-03-07T09:03:05;100586.55;;;20.98;32.87
72024;BME280;59889;50.700;5.440;2024-03-07T09:05:30;100588.54;;;21.07;32.78
72024;BME280;59889;50.700;5.440;2024-03-07T09:07:55;100585.23;;;21.23;32.85
72024;BME280;59889;50.700;5.440;2024-03-07T09:10:21;100586.98;;;21.04;32.77
72024;BME280;59889;50.700;5.440;2024-03-07T09:12:47;100585.45;;;21.13;32.71
72024;BME280;59889;50.700;5.440;2024-03-07T09:15:11;100584.20;;;21.11;32.74
72024;BME280;59889;50.700;5.440;2024-03-07T09:17:36;100582.69;;;21.38;32.71
72024;BME280;59889;50.700;5.440;2024-03-07T09:20:03;100582.27;;;21.38;32.75
72024;BME280;59889;50.700;5.440;2024-03-07T09:22:27;100580.21;;;21.32;32.82
72024;BME280;59889;50.700;5.440;2024-03-07T09:24:52;100581.65;;;21.42;32.85
72024;BME280;59889;50.700;5.440;2024-03-07T09:27:17;100582.06;;;21.40;32.94
72024;BME280;59889;50.700;5.440;2024-03-07T09:29:44;100584.15;;;21.05;33.12
72024;BME280;59889;50.700;5.440;2024-03-07T09:32:08;100581.02;;;20.94;32.98
72024;BME280;59889;50.700;5.440;2024-03-07T09:34:33;100572.69;;;20.98;33.27
72024;BME280;59889;50.700;5.440;2024-03-07T09:37:04;100571.71;;;21.22;32.99
72024;BME280;59889;50.700;5.440;2024-03-07T09:39:24;100571.75;;;21.41;33.04
72024;BME280;59889;50.700;5.440;2024-03-07T09:41:50;100567.79;;;21.14;33.09
72024;BME280;59889;50.700;5.440;2024-03-07T09:44:17;100569.10;;;21.20;33.02
72024;BME280;59889;50.700;5.440;2024-03-07T09:46:40;100569.80;;;21.16;33.05
72024;BME280;59889;50.700;5.440;2024-03-07T09:49:05;100567.61;;;20.95;33.01
72024;BME280;59889;50.700;5.440;2024-03-07T09:51:31;100566.93;;;21.14;33.05
72024;BME280;59889;50.700;5.440;2024-03-07T09:53:57;100566.24;;;21.19;32.98
72024;BME280;59889;50.700;5.440;2024-03-07T09:56:21;100568.56;;;21.08;33.08
72024;BME280;59889;50.700;5.440;2024-03-07T09:58:49;100568.70;;;21.14;32.98
72024;BME280;59889;50.700;5.440;2024-03-07T10:01:12;100567.63;;;21.35;33.01
72024;BME280;59889;50.700;5.440;2024-03-07T10:03:37;100567.61;;;21.27;33.09
72024;BME280;59889;50.700;5.440;2024-03-07T10:06:03;100566.36;;;21.13;33.04
72024;BME280;59889;50.700;5.440;2024-03-07T10:08:28;100564.12;;;21.29;33.08
72024;BME280;59889;50.700;5.440;2024-03-07T10:10:54;100565.90;;;21.10;33.02
72024;BME280;59889;50.700;5.440;2024-03-07T10:13:18;100564.26;;;21.13;33.01
72024;BME280;59889;50.700;5.440;2024-03-07T10:15:44;100560.50;;;21.33;33.16
72024;BME280;59889;50.700;5.440;2024-03-07T10:18:09;100559.44;;;21.13;33.16
72024;BME280;59889;50.700;5.440;2024-03-07T10:20:34;100559.68;;;21.28;33.27
72024;BME280;59889;50.700;5.440;2024-03-07T10:22:59;100559.70;;;21.03;33.28
72024;BME280;59889;50.700;5.440;2024-03-07T10:25:24;100558.37;;;21.12;33.17
72024;BME280;59889;50.700;5.440;2024-03-07T10:27:51;100555.75;;;21.16;33.11
72024;BME280;59889;50.700;5.440;2024-03-07T10:30:15;100552.99;;;21.14;33.13
72024;BME280;59889;50.700;5.440;2024-03-07T10:32:41;100551.13;;;21.14;33.16
72024;BME280;59889;50.700;5.440;2024-03-07T10:35:07;100549.33;;;21.12;33.16
72024;BME280;59889;50.700;5.440;2024-03-07T10:37:31;100547.13;;;20.93;33.08
72024;BME280;59889;50.700;5.440;2024-03-07T10:39:56;100549.95;;;21.18;33.07
72024;BME280;59889;50.700;5.440;2024-03-07T10:42:22;100547.07;;;21.40;33.09
72024;BME280;59889;50.700;5.440;2024-03-07T10:44:47;100544.40;;;21.12;33.13
72024;BME280;59889;50.700;5.440;2024-03-07T10:47:16;100543.75;;;21.38;33.12
72024;BME280;59889;50.700;5.440;2024-03-07T10:49:41;100543.05;;;21.36;33.14
72024;BME280;59889;50.700;5.440;2024-03-07T10:52:06;100538.18;;;21.37;33.13
72024;BME280;59889;50.700;5.440;2024-03-07T10:54:34;100538.11;;;21.29;33.23
72024;BME280;59889;50.700;5.440;2024-03-07T10:57:01;100537.73;;;21.20;33.04
72024;BME280;59889;50.700;5.440;2024-03-07T10:59:19;100535.64;;;21.30;33.20
72024;BME280;59889;50.700;5.440;2024-03-07T11:01:49;100534.59;;;21.10;33.16
72024;BME280;59889;50.700;5.440;2024-03-07T11:04:09;100527.55;;;20.93;33.36
72024;BME280;59889;50.700;5.440;2024-03-07T11:06:34;100527.92;;;21.00;33.29
72024;BME280;59889;50.700;5.440;2024-03-07T11:09:01;100526.61;;;21.35;33.15
72024;BME280;59889;50.700;5.440;2024-03-07T11:11:25;100528.01;;;21.22;33.29
72024;BME280;59889;50.700;5.440;2024-03-07T11:13:50;100519.39;;;21.18;33.36
72024;BME280;59889;50.700;5.440;2024-03-07T11:16:16;100521.11;;;20.93;33.41
72024;BME280;59889;50.700;5.440;2024-03-07T11:18:41;100519.72;;;21.23;33.36
72024;BME280;59889;50.700;5.440;2024-03-07T11:21:06;100513.60;;;20.91;33.45
72024;BME280;59889;50.700;5.440;2024-03-07T11:23:32;100511.78;;;20.80;33.84
72024;BME280;59889;50.700;5.440;2024-03-07T11:26:03;100508.35;;;20.90;33.81
72024;BME280;59889;50.700;5.440;2024-03-07T11:28:28;100505.21;;;21.04;33.63
72024;BME280;59889;50.700;5.440;2024-03-07T11:30:49;100503.50;;;21.18;33.45
72024;BME280;59889;50.700;5.440;2024-03-07T11:33:12;100501.86;;;20.97;33.42
72024;BME280;59889;50.700;5.440;2024-03-07T11:35:38;100495.20;;;20.86;33.52
72024;BME280;59889;50.700;5.440;2024-03-07T11:38:06;100495.21;;;21.02;33.34
72024;BME280;59889;50.700;5.440;2024-03-07T11:40:43;100488.74;;;21.20;33.38
72024;BME280;59889;50.700;5.440;2024-03-07T11:42:54;100483.49;;;20.98;33.35
72024;BME280;59889;50.700;5.440;2024-03-07T11:45:20;100478.07;;;21.05;33.29
72024;BME280;59889;50.700;5.440;2024-03-07T11:47:45;100475.26;;;21.27;33.31
72024;BME280;59889;50.700;5.440;2024-03-07T11:50:09;100474.31;;;21.17;33.40
72024;BME280;59889;50.700;5.440;2024-03-07T11:52:35;100467.73;;;20.64;33.73
72024;BME280;59889;50.700;5.440;2024-03-07T11:55:00;100462.63;;;20.80;33.54
72024;BME280;59889;50.700;5.440;2024-03-07T11:57:30;100462.12;;;20.99;33.31
72024;BME280;59889;50.700;5.440;2024-03-07T11:59:50;100452.66;;;20.88;33.39
72024;BME280;59889;50.700;5.440;2024-03-07T12:02:16;100448.86;;;20.90;33.38
72024;BME280;59889;50.700;5.440;2024-03-07T12:04:41;100445.62;;;20.88;33.40
72024;BME280;59889;50.700;5.440;2024-03-07T12:07:06;100443.83;;;20.97;33.26
72024;BME280;59889;50.700;5.440;2024-03-07T12:09:32;100440.58;;;20.90;33.34
72024;BME280;59889;50.700;5.440;2024-03-07T12:11:57;100441.78;;;21.19;33.28
72024;BME280;59889;50.700;5.440;2024-03-07T12:14:22;100439.01;;;21.15;33.34
72024;BME280;59889;50.700;5.440;2024-03-07T12:16:48;100435.89;;;21.11;33.36
72024;BME280;59889;50.700;5.440;2024-03-07T12:19:13;100432.85;;;21.00;33.23
72024;BME280;59889;50.700;5.440;2024-03-07T12:21:38;100427.78;;;21.20;33.27
72024;BME280;59889;50.700;5.440;2024-03-07T12:24:10;100426.55;;;21.17;33.31
72024;BME280;59889;50.700;5.440;2024-03-07T12:26:28;100421.85;;;20.92;33.32
72024;BME280;59889;50.700;5.440;2024-03-07T12:28:55;100421.05;;;21.12;33.34
72024;BME280;59889;50.700;5.440;2024-03-07T12:31:20;100415.97;;;21.12;33.34
72024;BME280;59889;50.700;5.440;2024-03-07T12:33:44;100405.09;;;21.21;33.22
72024;BME280;59889;50.700;5.440;2024-03-07T12:36:10;100405.94;;;21.09;33.34
72024;BME280;59889;50.700;5.440;2024-03-07T12:38:36;100402.01;;;21.02;33.43